createdAt,value
2023-09-17T00:00:38.542Z,3.45
2023-09-17T00:03:09.341Z,3.97
2023-09-17T00:05:39.411Z,4.20
2023-09-17T00:08:09.279Z,4.28
2023-09-17T00:10:40.561Z,3.55
2023-09-17T00:13:10.288Z,3.78
2023-09-17T00:15:42.900Z,4.00
2023-09-17T00:18:12.701Z,3.85
2023-09-17T00:20:42.316Z,3.42
2023-09-17T00:23:12.337Z,3.15
2023-09-17T00:25:42.404Z,3.80
2023-09-17T00:28:12.076Z,3.42
2023-09-17T00:30:44.471Z,3.47
2023-09-17T00:33:14.320Z,3.97
2023-09-17T00:35:44.441Z,3.40
2023-09-17T00:38:14.083Z,3.80
2023-09-17T00:40:43.684Z,3.63
2023-09-17T00:43:13.428Z,3.65
2023-09-17T00:45:47.085Z,3.72
2023-09-17T00:48:16.853Z,3.75
2023-09-17T00:50:47.531Z,3.50
2023-09-17T00:53:17.687Z,3.30
2023-09-17T00:55:47.419Z,3.80
2023-09-17T00:58:17.110Z,3.88
2023-09-17T01:00:49.720Z,3.60
2023-09-17T01:03:19.720Z,4.03
2023-09-17T01:05:50.361Z,3.40
2023-09-17T01:08:20.184Z,4.25
2023-09-17T01:10:52.043Z,3.83
2023-09-17T01:13:21.779Z,3.85
2023-09-17T01:15:55.331Z,4.45
2023-09-17T01:18:29.002Z,3.35
2023-09-17T01:21:01.568Z,3.90
2023-09-17T01:23:33.648Z,3.88
2023-09-17T01:26:09.828Z,3.88
2023-09-17T01:28:42.181Z,4.00
2023-09-17T01:31:12.682Z,4.07
2023-09-17T01:33:42.309Z,4.00
2023-09-17T01:36:15.329Z,4.10
2023-09-17T01:38:49.350Z,3.75
2023-09-17T01:41:20.813Z,4.10
2023-09-17T01:43:53.543Z,3.83
2023-09-17T01:46:24.405Z,3.78
2023-09-17T01:48:54.539Z,4.38
2023-09-17T01:51:24.326Z,3.70
2023-09-17T01:53:54.533Z,4.05
2023-09-17T01:56:24.888Z,3.88
2023-09-17T01:58:57.491Z,4.15
2023-09-17T02:01:27.331Z,4.07
2023-09-17T02:03:56.984Z,3.50
2023-09-17T02:06:26.921Z,3.70
2023-09-17T02:08:56.634Z,3.70
2023-09-17T02:11:26.254Z,3.67
2023-09-17T02:13:58.622Z,3.70
2023-09-17T02:16:28.398Z,3.55
2023-09-17T02:18:58.304Z,3.58
2023-09-17T02:21:27.935Z,3.75
2023-09-17T02:23:57.738Z,3.38
2023-09-17T02:26:27.747Z,3.75
2023-09-17T02:29:00.042Z,3.90
2023-09-17T02:31:29.949Z,3.45
2023-09-17T02:33:59.562Z,4.13
2023-09-17T02:36:29.474Z,4.43
2023-09-17T02:38:59.067Z,3.70
2023-09-17T02:41:28.710Z,4.00
2023-09-17T02:44:00.974Z,3.58
2023-09-17T02:46:30.767Z,4.00
2023-09-17T02:49:01.513Z,3.58
2023-09-17T02:51:31.776Z,3.67
2023-09-17T02:54:01.518Z,3.83
2023-09-17T02:56:31.170Z,3.55
2023-09-17T02:59:03.680Z,3.42
2023-09-17T03:01:33.494Z,3.67
2023-09-17T03:04:03.920Z,3.47
2023-09-17T03:06:34.780Z,3.70
2023-09-17T03:09:09.011Z,3.55
2023-09-17T03:11:38.802Z,3.42
2023-09-17T03:14:11.005Z,3.33
2023-09-17T03:16:40.873Z,3.80
2023-09-17T03:19:10.559Z,3.92
2023-09-17T03:21:42.312Z,3.10
2023-09-17T03:24:13.014Z,3.42
2023-09-17T03:26:43.890Z,3.90
2023-09-17T03:29:16.278Z,3.53
2023-09-17T03:31:46.996Z,3.83
2023-09-17T03:34:17.771Z,3.50
2023-09-17T03:36:48.030Z,3.60
2023-09-17T03:39:17.909Z,3.50
2023-09-17T03:41:47.491Z,3.85
2023-09-17T03:44:19.761Z,3.72
2023-09-17T03:46:50.249Z,4.57
2023-09-17T03:49:24.663Z,3.60
2023-09-17T03:51:55.802Z,4.13
2023-09-17T03:54:25.546Z,3.72
2023-09-17T03:56:55.189Z,3.67
2023-09-17T03:59:27.466Z,3.35
2023-09-17T04:01:57.372Z,3.90
2023-09-17T04:04:27.244Z,3.67
2023-09-17T04:06:57.753Z,3.67
2023-09-17T04:09:27.359Z,3.85
2023-09-17T04:11:56.969Z,3.45
2023-09-17T04:14:29.198Z,3.65
2023-09-17T04:16:58.911Z,3.83
2023-09-17T04:19:28.738Z,3.53
2023-09-17T04:21:58.529Z,3.40
2023-09-17T04:24:28.566Z,3.72
2023-09-17T04:26:58.391Z,3.58
2023-09-17T04:29:30.949Z,3.60
2023-09-17T04:32:00.754Z,4.03
2023-09-17T04:34:30.626Z,3.40
2023-09-17T04:37:01.151Z,3.70
2023-09-17T04:39:31.491Z,3.33
2023-09-17T04:42:02.102Z,3.42
2023-09-17T04:44:34.585Z,3.50
2023-09-17T04:47:04.754Z,3.45
2023-09-17T04:49:37.013Z,3.97
2023-09-17T04:52:07.655Z,3.80
2023-09-17T04:54:37.302Z,3.55
2023-09-17T04:57:08.821Z,3.78
2023-09-17T04:59:41.189Z,3.95
2023-09-17T05:02:12.066Z,3.90
2023-09-17T05:04:41.899Z,3.25
2023-09-17T05:07:12.196Z,3.70
2023-09-17T05:09:41.910Z,2.97
2023-09-17T05:12:12.076Z,3.85
2023-09-17T05:14:45.560Z,3.78
2023-09-17T05:17:15.524Z,3.55
2023-09-17T05:19:45.470Z,3.58
2023-09-17T05:22:15.128Z,3.70
2023-09-17T05:24:44.941Z,3.42
2023-09-17T05:27:14.855Z,3.70
2023-09-17T05:29:47.522Z,3.72
2023-09-17T05:32:17.373Z,3.58
2023-09-17T05:34:47.980Z,3.53
2023-09-17T05:37:18.284Z,3.13
2023-09-17T05:39:47.938Z,3.33
2023-09-17T05:42:17.609Z,3.67
2023-09-17T05:44:49.819Z,3.63
2023-09-17T05:47:19.938Z,3.22
2023-09-17T05:49:49.991Z,3.75
2023-09-17T05:52:20.147Z,3.80
2023-09-17T05:54:49.876Z,3.90
2023-09-17T05:57:19.922Z,3.25
2023-09-17T05:59:52.136Z,3.42
2023-09-17T06:02:22.094Z,3.92
2023-09-17T06:04:54.545Z,3.72
2023-09-17T06:07:25.366Z,3.60
2023-09-17T06:09:55.381Z,3.75
2023-09-17T06:12:28.149Z,3.97
2023-09-17T06:15:00.555Z,3.03
2023-09-17T06:17:30.392Z,3.40
2023-09-17T06:20:00.523Z,3.42
2023-09-17T06:22:30.314Z,3.15
2023-09-17T06:25:00.156Z,3.42
2023-09-17T06:27:31.277Z,3.53
2023-09-17T06:30:03.788Z,3.63
2023-09-17T06:32:34.177Z,3.47
2023-09-17T06:35:04.265Z,3.40
2023-09-17T06:37:33.919Z,3.92
2023-09-17T06:40:03.745Z,3.63
2023-09-17T06:42:34.373Z,4.38
2023-09-17T06:45:07.196Z,3.42
2023-09-17T06:47:37.101Z,3.42
2023-09-17T06:50:07.703Z,3.35
2023-09-17T06:52:37.488Z,3.40
2023-09-17T06:55:08.212Z,3.72
2023-09-17T06:57:40.212Z,3.83
2023-09-17T07:00:13.542Z,3.42
2023-09-17T07:02:43.318Z,3.60
2023-09-17T07:05:13.417Z,3.50
2023-09-17T07:07:43.734Z,3.53
2023-09-17T07:10:14.484Z,3.30
2023-09-17T07:12:44.869Z,3.70
2023-09-17T07:15:17.112Z,3.72
2023-09-17T07:17:47.343Z,3.47
2023-09-17T07:20:17.329Z,3.30
2023-09-17T07:22:46.990Z,3.97
2023-09-17T07:25:17.332Z,3.10
2023-09-17T07:27:44.385Z,3.58
2023-09-17T07:30:15.973Z,3.40
2023-09-17T07:32:48.341Z,3.65
2023-09-17T07:35:18.089Z,3.05
2023-09-17T07:37:51.420Z,3.50
2023-09-17T07:40:21.915Z,3.13
2023-09-17T07:42:51.593Z,3.55
2023-09-17T07:45:21.860Z,3.40
2023-09-17T07:47:54.105Z,3.70
2023-09-17T07:50:23.922Z,3.40
2023-09-17T07:52:53.534Z,3.15
2023-09-17T07:55:23.475Z,3.28
2023-09-17T07:57:53.405Z,3.40
2023-09-17T08:00:23.271Z,2.70
2023-09-17T08:02:55.761Z,3.10
2023-09-17T08:05:26.536Z,3.00
2023-09-17T08:07:56.256Z,3.30
2023-09-17T08:10:26.422Z,3.38
2023-09-17T08:12:56.108Z,3.30
2023-09-17T08:15:25.741Z,3.28
2023-09-17T08:17:58.039Z,3.40
2023-09-17T08:20:27.826Z,3.40
2023-09-17T08:22:58.315Z,3.20
2023-09-17T08:25:28.167Z,3.65
2023-09-17T08:27:57.864Z,3.92
2023-09-17T08:30:27.590Z,3.15
2023-09-17T08:33:02.227Z,3.30
2023-09-17T08:35:32.490Z,3.00
2023-09-17T08:38:02.213Z,3.50
2023-09-17T08:40:33.349Z,3.38
2023-09-17T08:43:03.589Z,2.95
2023-09-17T08:45:34.280Z,3.20
2023-09-17T08:48:06.801Z,3.17
2023-09-17T08:50:38.177Z,3.10
2023-09-17T08:53:10.312Z,3.13
2023-09-17T08:55:40.035Z,3.42
2023-09-17T08:58:14.273Z,3.30
2023-09-17T09:00:45.425Z,3.05
2023-09-17T09:03:21.406Z,3.80
2023-09-17T09:05:52.126Z,3.83
2023-09-17T09:08:22.604Z,3.17
2023-09-17T09:10:52.461Z,3.55
2023-09-17T09:13:22.844Z,3.25
2023-09-17T09:15:52.517Z,3.35
2023-09-17T09:18:25.712Z,3.35
2023-09-17T09:20:55.383Z,3.40
2023-09-17T09:23:25.187Z,3.30
2023-09-17T09:25:55.072Z,3.63
2023-09-17T09:28:24.696Z,3.55
2023-09-17T09:30:54.424Z,3.10
2023-09-17T09:33:28.208Z,3.50
2023-09-17T09:35:58.118Z,3.60
2023-09-17T09:38:28.120Z,3.25
2023-09-17T09:40:58.067Z,3.35
2023-09-17T09:43:32.504Z,3.15
2023-09-17T09:46:06.408Z,3.38
2023-09-17T09:48:40.459Z,3.65
2023-09-17T09:51:10.594Z,3.22
2023-09-17T09:53:40.257Z,3.58
2023-09-17T09:56:09.972Z,3.40
2023-09-17T09:58:40.770Z,3.78
2023-09-17T10:01:10.539Z,3.50
2023-09-17T10:03:42.801Z,3.03
2023-09-17T10:06:12.659Z,3.05
2023-09-17T10:08:42.377Z,3.60
2023-09-17T10:11:12.459Z,2.97
2023-09-17T10:13:42.286Z,3.08
2023-09-17T10:16:12.147Z,3.00
2023-09-17T10:18:46.622Z,3.65
2023-09-17T10:21:17.342Z,3.50
2023-09-17T10:23:47.614Z,3.30
2023-09-17T10:26:20.037Z,3.63
2023-09-17T10:28:50.617Z,3.47
2023-09-17T10:31:20.414Z,3.90
2023-09-17T10:33:53.711Z,3.38
2023-09-17T10:36:23.747Z,3.25
2023-09-17T10:38:56.252Z,3.88
2023-09-17T10:41:26.317Z,3.60
2023-09-17T10:43:56.828Z,4.00
2023-09-17T10:46:26.875Z,3.17
2023-09-17T10:48:59.326Z,3.50
2023-09-17T10:51:29.626Z,3.63
2023-09-17T10:53:59.363Z,4.22
2023-09-17T10:56:29.618Z,3.38
2023-09-17T10:59:01.106Z,3.88
2023-09-17T11:01:33.747Z,3.42
2023-09-17T11:04:08.223Z,3.22
2023-09-17T11:06:38.395Z,3.60
2023-09-17T11:09:08.641Z,4.05
2023-09-17T11:11:38.952Z,3.28
2023-09-17T11:14:09.971Z,3.08
2023-09-17T11:16:40.151Z,3.10
2023-09-17T11:19:14.648Z,3.88
2023-09-17T11:21:45.640Z,3.10
2023-09-17T11:24:19.295Z,2.72
2023-09-17T11:26:49.751Z,2.80
2023-09-17T11:29:19.688Z,3.30
2023-09-17T11:32:04.628Z,2.88
2023-09-17T11:34:37.839Z,2.90
2023-09-17T11:37:08.413Z,2.72
2023-09-17T11:39:39.433Z,2.58
2023-09-17T11:42:14.146Z,3.42
2023-09-17T11:44:48.464Z,2.95
2023-09-17T11:47:18.853Z,2.90
2023-09-17T11:49:51.972Z,2.75
2023-09-17T11:52:24.097Z,2.45
2023-09-17T11:54:59.581Z,2.83
2023-09-17T11:57:29.615Z,2.58
2023-09-17T11:59:59.669Z,2.75
2023-09-17T12:02:30.575Z,3.03
2023-09-17T12:05:05.752Z,2.53
2023-09-17T12:07:45.712Z,2.97
2023-09-17T12:10:28.437Z,2.90
2023-09-17T12:12:58.705Z,2.55
2023-09-17T12:15:29.482Z,2.30
2023-09-17T12:18:00.498Z,2.30
2023-09-17T12:20:50.359Z,3.67
2023-09-17T12:23:28.330Z,2.45
2023-09-17T12:25:58.093Z,2.55
2023-09-17T12:28:31.173Z,2.83
2023-09-17T12:31:01.007Z,3.33
2023-09-17T12:33:31.392Z,2.80
2023-09-17T12:36:03.793Z,3.10
2023-09-17T12:38:35.151Z,3.08
2023-09-17T12:41:05.440Z,2.78
2023-09-17T12:43:35.132Z,2.55
2023-09-17T12:46:05.451Z,2.75
2023-09-17T12:48:35.100Z,3.03
2023-09-17T12:51:07.383Z,2.97
2023-09-17T12:53:37.499Z,3.03
2023-09-17T12:56:07.630Z,3.10
2023-09-17T12:58:37.448Z,2.53
2023-09-17T13:01:10.779Z,2.63
2023-09-17T13:03:40.669Z,2.70
2023-09-17T13:06:14.113Z,2.88
2023-09-17T13:08:44.083Z,2.50
2023-09-17T13:11:14.033Z,2.28
2023-09-17T13:13:47.251Z,2.72
2023-09-17T13:16:17.447Z,3.45
2023-09-17T13:18:48.501Z,2.05
2023-09-17T13:21:21.129Z,3.40
2023-09-17T13:23:51.436Z,2.50
2023-09-17T13:26:21.532Z,2.75
2023-09-17T13:28:55.512Z,2.83
2023-09-17T13:31:25.400Z,2.53
2023-09-17T13:33:55.154Z,3.08
2023-09-17T13:36:29.549Z,2.92
2023-09-17T13:39:01.355Z,2.72
2023-09-17T13:41:32.094Z,2.42
2023-09-17T13:44:02.242Z,2.65
2023-09-17T13:46:32.250Z,2.20
2023-09-17T13:49:01.914Z,2.65
2023-09-17T13:51:34.727Z,2.35
2023-09-17T13:54:04.423Z,2.55
2023-09-17T13:56:34.048Z,3.28
2023-09-17T13:59:03.690Z,3.40
2023-09-17T14:01:33.397Z,2.53
2023-09-17T14:04:04.300Z,2.63
2023-09-17T14:06:38.812Z,2.80
2023-09-17T14:09:09.105Z,2.53
2023-09-17T14:11:38.961Z,2.80
2023-09-17T14:14:09.059Z,3.05
2023-09-17T14:16:38.903Z,2.70
2023-09-17T14:19:08.630Z,2.83
2023-09-17T14:21:41.703Z,2.90
2023-09-17T14:24:11.807Z,2.53
2023-09-17T14:26:41.421Z,2.95
2023-09-17T14:29:11.257Z,3.08
2023-09-17T14:31:44.085Z,2.90
2023-09-17T14:34:14.273Z,2.88
2023-09-17T14:36:46.490Z,2.63
2023-09-17T14:39:16.183Z,2.55
2023-09-17T14:41:45.856Z,2.55
2023-09-17T14:44:15.566Z,3.00
2023-09-17T14:46:45.401Z,2.60
2023-09-17T14:49:15.105Z,2.65
2023-09-17T14:51:47.459Z,2.60
2023-09-17T14:54:17.192Z,2.55
2023-09-17T14:56:46.904Z,2.80
2023-09-17T14:59:17.067Z,2.55
2023-09-17T15:01:59.969Z,3.03
2023-09-17T15:04:30.830Z,2.60
2023-09-17T15:07:03.272Z,2.47
2023-09-17T15:09:33.005Z,2.97
2023-09-17T15:12:04.955Z,3.05
2023-09-17T15:14:35.101Z,2.67
2023-09-17T15:17:04.920Z,3.22
2023-09-17T15:19:34.631Z,3.13
2023-09-17T15:22:07.459Z,2.72
2023-09-17T15:24:37.097Z,3.10
2023-09-17T15:27:06.998Z,2.72
2023-09-17T15:29:37.789Z,2.83
2023-09-17T15:32:07.909Z,3.05
2023-09-17T15:34:39.555Z,2.63
2023-09-17T15:37:12.129Z,3.13
2023-09-17T15:39:41.882Z,2.95
2023-09-17T15:42:11.519Z,2.85
2023-09-17T15:44:41.455Z,3.10
2023-09-17T15:47:11.145Z,2.92
2023-09-17T15:49:41.028Z,3.17
2023-09-17T15:52:13.391Z,2.63
2023-09-17T15:54:43.100Z,2.58
2023-09-17T15:57:13.083Z,2.58
2023-09-17T15:59:42.899Z,2.40
2023-09-17T16:02:12.648Z,2.53
2023-09-17T16:04:42.365Z,3.13
2023-09-17T16:07:15.171Z,2.50
2023-09-17T16:09:44.859Z,2.70
2023-09-17T16:12:14.537Z,2.97
2023-09-17T16:14:44.671Z,3.35
2023-09-17T16:17:14.366Z,2.78
2023-09-17T16:19:55.611Z,2.55
2023-09-17T16:22:28.246Z,2.78
2023-09-17T16:24:57.929Z,3.15
2023-09-17T16:27:27.691Z,3.33
2023-09-17T16:29:57.778Z,2.85
2023-09-17T16:32:27.633Z,3.10
2023-09-17T16:34:57.357Z,3.20
2023-09-17T16:37:29.556Z,3.05
2023-09-17T16:39:59.287Z,2.80
2023-09-17T16:42:29.021Z,2.45
2023-09-17T16:44:58.790Z,2.85
2023-09-17T16:47:28.656Z,2.70
2023-09-17T16:49:58.345Z,2.45
2023-09-17T16:52:30.680Z,3.20
2023-09-17T16:55:00.432Z,2.85
2023-09-17T16:57:30.182Z,2.47
2023-09-17T17:00:00.668Z,2.90
2023-09-17T17:02:30.438Z,2.72
2023-09-17T17:05:01.637Z,2.40
2023-09-17T17:07:34.238Z,2.80
2023-09-17T17:10:04.995Z,2.72
2023-09-17T17:12:35.543Z,3.00
2023-09-17T17:15:05.340Z,2.70
2023-09-17T17:17:35.259Z,2.40
2023-09-17T17:20:05.151Z,2.53
2023-09-17T17:22:47.902Z,2.72
2023-09-17T17:25:18.023Z,2.88
2023-09-17T17:27:49.796Z,2.70
2023-09-17T17:30:19.755Z,2.97
2023-09-17T17:32:49.410Z,2.95
2023-09-17T17:35:20.508Z,3.10
2023-09-17T17:37:52.900Z,3.10
2023-09-17T17:40:24.253Z,2.15
2023-09-17T17:42:55.328Z,2.50
2023-09-17T17:45:25.075Z,2.58
2023-09-17T17:47:54.821Z,2.95
2023-09-17T17:50:24.584Z,3.03
2023-09-17T17:52:57.330Z,2.78
2023-09-17T17:55:27.058Z,2.60
2023-09-17T17:57:56.819Z,2.92
2023-09-17T18:00:26.527Z,2.70
2023-09-17T18:02:56.361Z,2.80
2023-09-17T18:05:26.312Z,2.63
2023-09-17T18:07:58.746Z,2.53
2023-09-17T18:10:28.519Z,2.67
2023-09-17T18:12:58.680Z,2.33
2023-09-17T18:15:28.382Z,2.95
2023-09-17T18:17:58.106Z,3.10
2023-09-17T18:20:27.868Z,2.40
2023-09-17T18:23:02.501Z,2.67
2023-09-17T18:25:33.265Z,2.60
2023-09-17T18:28:08.241Z,2.60
2023-09-17T18:30:38.664Z,2.72
2023-09-17T18:33:08.786Z,3.03
2023-09-17T18:35:38.585Z,2.80
2023-09-17T18:38:11.004Z,2.70
2023-09-17T18:40:41.479Z,2.80
2023-09-17T18:43:11.185Z,2.58
2023-09-17T18:45:40.865Z,2.85
2023-09-17T18:48:10.664Z,2.70
2023-09-17T18:50:40.434Z,3.00
2023-09-17T18:53:12.874Z,3.55
2023-09-17T18:55:42.618Z,2.97
2023-09-17T18:58:12.246Z,2.90
2023-09-17T19:00:42.998Z,3.15
2023-09-17T19:03:12.810Z,2.55
2023-09-17T19:05:45.263Z,2.55
2023-09-17T19:08:17.812Z,3.10
2023-09-17T19:10:47.544Z,2.88
2023-09-17T19:13:18.308Z,3.03
2023-09-17T19:15:48.471Z,2.70
2023-09-17T19:18:21.084Z,2.78
2023-09-17T19:20:51.415Z,2.58
2023-09-17T19:23:23.759Z,2.70
2023-09-17T19:25:53.790Z,2.80
2023-09-17T19:28:23.468Z,3.28
2023-09-17T19:30:53.135Z,2.67
2023-09-17T19:33:22.987Z,2.90
2023-09-17T19:35:52.759Z,2.63
2023-09-17T19:38:25.190Z,2.83
2023-09-17T19:40:55.049Z,3.03
2023-09-17T19:43:24.899Z,3.33
2023-09-17T19:45:56.810Z,2.80
2023-09-17T19:48:26.975Z,2.72
2023-09-17T19:50:58.340Z,3.05
2023-09-17T19:53:30.707Z,2.97
2023-09-17T19:56:00.543Z,3.28
2023-09-17T19:58:30.392Z,3.15
2023-09-17T20:01:02.674Z,2.80
2023-09-17T20:03:32.550Z,3.75
2023-09-17T20:06:02.403Z,3.08
2023-09-17T20:08:34.738Z,3.00
2023-09-17T20:11:04.678Z,3.05
2023-09-17T20:13:34.809Z,3.35
2023-09-17T20:16:04.438Z,2.97
2023-09-17T20:18:34.158Z,2.83
2023-09-17T20:21:04.512Z,3.30
2023-09-17T20:23:37.661Z,2.90
2023-09-17T20:26:11.689Z,3.40
2023-09-17T20:28:41.668Z,2.95
2023-09-17T20:31:11.401Z,3.15
2023-09-17T20:33:41.155Z,3.13
2023-09-17T20:36:11.048Z,3.65
2023-09-17T20:38:43.487Z,3.00
2023-09-17T20:41:13.309Z,3.00
2023-09-17T20:43:43.029Z,3.40
2023-09-17T20:46:12.842Z,2.50
2023-09-17T20:48:42.610Z,3.25
2023-09-17T20:51:12.316Z,3.22
2023-09-17T20:53:45.367Z,3.58
2023-09-17T20:56:15.950Z,3.50
2023-09-17T20:58:46.467Z,3.40
2023-09-17T21:01:17.369Z,3.30
2023-09-17T21:03:47.791Z,3.20
2023-09-17T21:06:17.493Z,3.10
2023-09-17T21:08:50.778Z,3.38
2023-09-17T21:11:21.508Z,3.17
2023-09-17T21:13:51.405Z,3.10
2023-09-17T21:16:21.110Z,3.35
2023-09-17T21:18:51.023Z,3.22
2023-09-17T21:21:20.832Z,3.30
2023-09-17T21:23:53.099Z,3.38
2023-09-17T21:26:22.960Z,3.58
2023-09-17T21:28:52.788Z,3.03
2023-09-17T21:31:22.785Z,3.20
2023-09-17T21:33:53.114Z,3.42
2023-09-17T21:36:23.150Z,3.38
2023-09-17T21:38:55.504Z,2.95
2023-09-17T21:41:25.314Z,3.08
2023-09-17T21:43:55.098Z,3.35
2023-09-17T21:46:24.783Z,3.58
2023-09-17T21:48:54.537Z,3.20
2023-09-17T21:51:24.180Z,3.85
2023-09-17T21:53:56.474Z,3.20
2023-09-17T21:56:26.188Z,3.35
2023-09-17T21:58:55.899Z,3.22
2023-09-17T22:01:26.576Z,4.10
2023-09-17T22:03:56.349Z,3.42
2023-09-17T22:06:26.212Z,3.13
2023-09-17T22:08:58.741Z,3.50
2023-09-17T22:11:28.581Z,3.42
2023-09-17T22:13:58.280Z,4.07
2023-09-17T22:16:28.120Z,3.47
2023-09-17T22:18:57.782Z,3.45
2023-09-17T22:21:27.507Z,3.88
2023-09-17T22:23:59.878Z,3.35
2023-09-17T22:26:29.848Z,3.50
2023-09-17T22:29:00.846Z,3.45
2023-09-17T22:31:30.649Z,3.60
2023-09-17T22:34:00.693Z,3.55
2023-09-17T22:36:30.508Z,3.25
2023-09-17T22:39:02.758Z,3.85
2023-09-17T22:41:32.488Z,3.00
2023-09-17T22:44:11.769Z,3.42
2023-09-17T22:46:46.320Z,3.30
2023-09-17T22:49:15.960Z,4.30
2023-09-17T22:51:45.617Z,3.58
2023-09-17T22:54:17.908Z,3.85
2023-09-17T22:56:47.611Z,3.40
2023-09-17T22:59:17.439Z,3.72
2023-09-17T23:01:47.399Z,3.40
2023-09-17T23:04:17.147Z,3.75
2023-09-17T23:06:46.812Z,3.70
2023-09-17T23:09:19.163Z,3.35
2023-09-17T23:11:49.015Z,3.25
2023-09-17T23:14:18.667Z,3.80
2023-09-17T23:16:48.451Z,3.40
2023-09-17T23:19:18.427Z,3.28
2023-09-17T23:21:49.421Z,3.63
2023-09-17T23:24:21.799Z,3.15
2023-09-17T23:26:51.783Z,3.45
2023-09-17T23:29:22.895Z,3.47
2023-09-17T23:31:52.798Z,3.20
2023-09-17T23:34:22.655Z,3.40
2023-09-17T23:36:52.399Z,3.50
2023-09-17T23:39:24.790Z,3.58
2023-09-17T23:41:54.804Z,3.47
2023-09-17T23:44:24.456Z,3.58
2023-09-17T23:46:54.140Z,3.70
2023-09-17T23:49:23.850Z,3.67
2023-09-17T23:51:53.455Z,3.45
2023-09-17T23:54:25.676Z,3.92
2023-09-17T23:56:55.264Z,3.58
2023-09-17T23:59:25.109Z,3.83
